createdAt,value
2022-08-25T00:01:30.017Z,34.83
2022-08-25T00:04:53.778Z,27.95
2022-08-25T00:08:16.007Z,23.33
2022-08-25T00:11:38.007Z,29.98
2022-08-25T00:14:58.990Z,25.63
2022-08-25T00:18:20.151Z,25.50
2022-08-25T00:21:41.981Z,28.55
2022-08-25T00:25:03.013Z,21.38
2022-08-25T00:28:23.998Z,28.70
2022-08-25T00:31:45.059Z,27.52
2022-08-25T00:35:06.991Z,29.30
2022-08-25T00:38:28.022Z,24.08
2022-08-25T00:41:50.012Z,25.50
2022-08-25T00:45:11.004Z,27.10
2022-08-25T00:48:32.002Z,25.58
2022-08-25T00:52:01.021Z,28.85
2022-08-25T00:55:34.012Z,24.00
2022-08-25T00:58:56.020Z,29.65
2022-08-25T01:02:19.045Z,29.15
2022-08-25T01:05:42.057Z,20.90
2022-08-25T01:09:04.011Z,29.50
2022-08-25T01:12:25.037Z,23.90
2022-08-25T01:15:49.070Z,32.45
2022-08-25T01:19:15.556Z,29.85
2022-08-25T01:22:35.994Z,29.85
2022-08-25T01:26:10.016Z,25.60
2022-08-25T01:29:33.040Z,24.50
2022-08-25T01:32:54.030Z,37.08
2022-08-25T01:36:15.031Z,25.20
2022-08-25T01:39:37.069Z,25.27
2022-08-25T01:43:26.034Z,26.98
2022-08-25T01:46:47.018Z,26.30
2022-08-25T01:50:08.037Z,39.00
2022-08-25T01:53:42.029Z,23.15
2022-08-25T01:57:03.036Z,21.92
2022-08-25T02:00:25.044Z,34.13
2022-08-25T02:03:46.409Z,31.73
2022-08-25T02:07:10.024Z,24.60
2022-08-25T02:10:31.038Z,24.25
2022-08-25T02:13:53.047Z,25.48
2022-08-25T02:17:14.058Z,26.73
2022-08-25T02:20:35.037Z,35.08
2022-08-25T02:23:56.038Z,30.33
2022-08-25T02:27:17.075Z,29.02
2022-08-25T02:30:38.192Z,23.20
2022-08-25T02:33:59.020Z,30.23
2022-08-25T02:37:21.050Z,24.17
2022-08-25T02:40:42.041Z,34.95
2022-08-25T02:44:04.040Z,26.98
2022-08-25T02:47:27.026Z,27.40
2022-08-25T02:50:41.053Z,28.00
2022-08-25T02:54:04.035Z,29.08
2022-08-25T02:57:25.070Z,27.40
2022-08-25T03:00:46.168Z,24.38
2022-08-25T03:04:07.054Z,27.50
2022-08-25T03:07:28.106Z,20.77
2022-08-25T03:10:54.058Z,21.10
2022-08-25T03:14:15.075Z,26.30
2022-08-25T03:17:36.067Z,19.75
2022-08-25T03:20:57.057Z,27.73
2022-08-25T03:24:19.064Z,22.05
2022-08-25T03:27:40.074Z,28.15
2022-08-25T03:31:01.062Z,16.90
2022-08-25T03:34:23.099Z,23.58
2022-08-25T03:37:44.055Z,23.73
2022-08-25T03:41:06.098Z,26.50
2022-08-25T03:44:28.049Z,27.05
2022-08-25T03:47:49.060Z,17.98
2022-08-25T03:51:10.048Z,21.88
2022-08-25T03:54:35.061Z,18.52
2022-08-25T03:57:56.059Z,30.00
2022-08-25T04:01:18.217Z,31.38
2022-08-25T04:04:39.079Z,25.83
2022-08-25T04:08:00.187Z,35.38
2022-08-25T04:11:27.088Z,24.08
2022-08-25T04:14:48.076Z,22.45
2022-08-25T04:18:11.078Z,24.92
2022-08-25T04:21:33.067Z,27.73
2022-08-25T04:24:54.065Z,31.95
2022-08-25T04:28:16.069Z,23.85
2022-08-25T04:31:37.101Z,21.42
2022-08-25T04:34:58.092Z,27.17
2022-08-25T04:38:19.118Z,26.40
2022-08-25T04:41:40.065Z,19.08
2022-08-25T04:45:01.108Z,20.67
2022-08-25T04:48:22.089Z,19.08
2022-08-25T04:51:49.102Z,23.23
2022-08-25T04:55:10.122Z,21.63
2022-08-25T04:58:31.111Z,22.95
2022-08-25T05:01:56.138Z,21.38
2022-08-25T05:05:17.101Z,17.80
2022-08-25T05:08:38.082Z,24.80
2022-08-25T05:11:59.089Z,20.65
2022-08-25T05:15:33.083Z,24.90
2022-08-25T05:18:55.096Z,18.80
2022-08-25T05:22:16.083Z,22.23
2022-08-25T05:25:38.124Z,22.40
2022-08-25T05:28:59.093Z,18.10
2022-08-25T05:32:20.103Z,22.50
2022-08-25T05:35:41.100Z,24.17
2022-08-25T05:39:02.124Z,22.48
2022-08-25T05:42:23.083Z,16.95
2022-08-25T05:45:38.170Z,22.17
2022-08-25T05:49:00.090Z,20.25
2022-08-25T05:52:21.110Z,23.52
2022-08-25T05:55:42.087Z,18.48
2022-08-25T05:59:07.333Z,24.45
2022-08-25T06:02:48.111Z,26.05
2022-08-25T06:06:19.096Z,23.45
2022-08-25T06:09:40.123Z,24.27
2022-08-25T06:13:02.123Z,24.13
2022-08-25T06:16:23.234Z,26.05
2022-08-25T06:19:44.109Z,21.80
2022-08-25T06:23:05.123Z,24.55
2022-08-25T06:26:27.110Z,25.88
2022-08-25T06:29:48.135Z,21.33
2022-08-25T06:33:14.107Z,17.50
2022-08-25T06:36:35.148Z,22.67
2022-08-25T06:39:56.213Z,24.48
2022-08-25T06:43:18.125Z,18.33
2022-08-25T06:46:41.160Z,16.75
2022-08-25T06:50:02.138Z,17.27
2022-08-25T06:53:23.130Z,20.60
2022-08-25T06:56:44.188Z,18.60
2022-08-25T07:00:05.118Z,20.48
2022-08-25T07:03:26.227Z,16.58
2022-08-25T07:06:48.129Z,18.92
2022-08-25T07:10:09.145Z,18.38
2022-08-25T07:13:30.130Z,20.00
2022-08-25T07:16:52.140Z,21.63
2022-08-25T07:20:13.655Z,26.15
2022-08-25T07:23:35.155Z,14.77
2022-08-25T07:26:57.132Z,14.75
2022-08-25T07:30:20.146Z,20.20
2022-08-25T07:33:41.124Z,16.23
2022-08-25T07:37:02.142Z,16.10
2022-08-25T07:40:32.202Z,14.15
2022-08-25T07:43:46.154Z,20.00
2022-08-25T07:47:07.165Z,11.13
2022-08-25T07:50:28.196Z,10.90
2022-08-25T07:53:49.187Z,10.45
2022-08-25T07:57:10.147Z,8.60
2022-08-25T08:00:34.152Z,11.35
2022-08-25T08:04:02.913Z,11.52
2022-08-25T08:07:41.139Z,9.50
2022-08-25T08:11:05.434Z,8.00
2022-08-25T08:14:26.151Z,14.60
2022-08-25T08:17:47.155Z,10.38
2022-08-25T08:21:09.173Z,11.32
2022-08-25T08:24:44.234Z,10.52
2022-08-25T08:28:07.245Z,9.45
2022-08-25T08:31:28.195Z,9.75
2022-08-25T08:34:51.383Z,12.75
2022-08-25T08:38:18.499Z,11.82
2022-08-25T08:42:26.175Z,9.35
2022-08-25T08:45:50.183Z,7.22
2022-08-25T08:49:13.227Z,8.63
2022-08-25T08:53:02.192Z,10.00
2022-08-25T08:56:30.655Z,10.27
2022-08-25T09:00:03.192Z,9.48
2022-08-25T09:03:37.259Z,10.90
2022-08-25T09:07:02.171Z,12.30
2022-08-25T09:10:24.159Z,11.43
2022-08-25T09:14:09.184Z,7.07
2022-08-25T09:18:09.550Z,12.55
2022-08-25T09:21:36.182Z,5.78
2022-08-25T09:25:54.214Z,7.68
2022-08-25T09:29:16.540Z,10.82
2022-08-25T09:33:12.997Z,6.15
2022-08-25T09:37:05.983Z,6.63
2022-08-25T09:40:33.431Z,8.82
2022-08-25T09:44:06.175Z,6.68
2022-08-25T09:47:39.189Z,6.28
2022-08-25T09:51:03.311Z,7.18
2022-08-25T09:54:44.396Z,9.43
2022-08-25T09:58:10.225Z,9.07
2022-08-25T10:01:35.232Z,11.82
2022-08-25T10:04:56.217Z,7.60
2022-08-25T10:08:26.207Z,6.15
2022-08-25T10:11:57.450Z,9.43
2022-08-25T10:15:34.230Z,8.05
2022-08-25T10:18:55.201Z,10.90
2022-08-25T10:22:25.190Z,7.40
2022-08-25T10:25:57.806Z,9.90
2022-08-25T10:29:25.189Z,7.80
2022-08-25T10:32:58.205Z,7.75
2022-08-25T10:36:29.248Z,6.28
2022-08-25T10:39:59.228Z,7.55
2022-08-25T10:43:44.234Z,7.75
2022-08-25T10:47:16.200Z,13.35
2022-08-25T10:51:12.614Z,14.40
2022-08-25T10:54:40.190Z,10.45
2022-08-25T10:58:30.773Z,11.07
2022-08-25T11:02:24.227Z,10.32
2022-08-25T11:06:10.207Z,5.97
2022-08-25T11:09:39.252Z,8.00
2022-08-25T11:13:11.368Z,8.05
2022-08-25T11:16:41.279Z,11.35
2022-08-25T11:20:07.198Z,9.13
2022-08-25T11:23:36.214Z,9.52
2022-08-25T11:27:07.211Z,8.82
2022-08-25T11:30:31.286Z,9.02
2022-08-25T11:33:52.212Z,8.07
2022-08-25T11:37:44.223Z,13.07
2022-08-25T11:41:25.203Z,10.00
2022-08-25T11:45:20.266Z,7.65
2022-08-25T11:49:08.227Z,9.00
2022-08-25T11:52:47.202Z,8.30
2022-08-25T11:56:12.240Z,8.88
2022-08-25T12:00:06.236Z,9.75
2022-08-25T12:04:00.304Z,7.53
2022-08-25T12:07:22.020Z,7.68
2022-08-25T12:11:11.166Z,7.45
2022-08-25T12:14:38.233Z,8.95
2022-08-25T12:17:59.312Z,8.35
2022-08-25T12:21:20.249Z,9.32
2022-08-25T12:24:57.232Z,10.13
2022-08-25T12:28:35.237Z,6.57
2022-08-25T12:32:13.232Z,14.63
2022-08-25T12:35:38.251Z,8.63
2022-08-25T12:39:03.223Z,10.80
2022-08-25T12:42:37.811Z,6.68
2022-08-25T12:46:36.236Z,16.30
2022-08-25T12:49:57.234Z,5.93
2022-08-25T12:53:42.240Z,10.00
2022-08-25T12:57:14.226Z,6.88
2022-08-25T13:00:40.282Z,11.23
2022-08-25T13:04:44.234Z,8.50
2022-08-25T13:08:05.391Z,11.20
2022-08-25T13:11:57.218Z,11.82
2022-08-25T13:15:18.247Z,9.27
2022-08-25T13:18:42.232Z,16.38
2022-08-25T13:22:03.279Z,23.05
2022-08-25T13:25:35.262Z,7.90
2022-08-25T13:29:09.181Z,8.75
2022-08-25T13:32:40.307Z,9.05
2022-08-25T13:36:22.246Z,7.65
2022-08-25T13:39:56.483Z,10.15
2022-08-25T13:43:27.568Z,10.20
2022-08-25T13:46:48.289Z,9.85
2022-08-25T13:50:30.268Z,12.82
2022-08-25T13:53:52.307Z,11.23
2022-08-25T13:57:31.237Z,6.95
2022-08-25T14:00:59.542Z,7.55
2022-08-25T14:04:51.741Z,7.07
2022-08-25T14:08:23.361Z,11.85
2022-08-25T14:12:11.259Z,6.38
2022-08-25T14:15:33.433Z,13.48
2022-08-25T14:19:08.270Z,9.98
2022-08-25T14:22:29.288Z,8.70
2022-08-25T14:25:50.271Z,10.63
2022-08-25T14:29:11.330Z,10.98
2022-08-25T14:32:32.281Z,7.22
2022-08-25T14:35:57.258Z,10.68
2022-08-25T14:39:18.262Z,19.33
2022-08-25T14:42:39.274Z,22.92
2022-08-25T14:46:02.579Z,14.95
2022-08-25T14:49:27.254Z,9.75
2022-08-25T14:52:48.293Z,8.97
2022-08-25T14:56:14.305Z,12.25
2022-08-25T14:59:35.262Z,10.70
2022-08-25T15:02:58.270Z,10.80
2022-08-25T15:06:19.349Z,9.80
2022-08-25T15:09:40.261Z,7.22
2022-08-25T15:13:01.261Z,13.63
2022-08-25T15:16:24.321Z,16.67
2022-08-25T15:19:56.308Z,12.85
2022-08-25T15:23:17.292Z,12.88
2022-08-25T15:26:38.322Z,9.88
2022-08-25T15:29:59.328Z,13.52
2022-08-25T15:33:29.279Z,9.05
2022-08-25T15:36:51.294Z,11.88
2022-08-25T15:40:12.373Z,10.93
2022-08-25T15:43:33.310Z,11.45
2022-08-25T15:46:56.264Z,10.93
2022-08-25T15:50:26.201Z,7.70
2022-08-25T15:53:48.342Z,7.00
2022-08-25T15:57:13.964Z,10.82
2022-08-25T16:00:45.299Z,10.43
2022-08-25T16:04:17.274Z,11.18
2022-08-25T16:07:38.272Z,9.23
2022-08-25T16:10:59.293Z,12.30
2022-08-25T16:14:21.262Z,13.55
2022-08-25T16:17:43.643Z,12.02
2022-08-25T16:21:06.287Z,8.95
2022-08-25T16:24:33.334Z,10.55
2022-08-25T16:27:59.296Z,12.60
2022-08-25T16:31:23.331Z,17.83
2022-08-25T16:34:45.321Z,19.85
2022-08-25T16:38:08.291Z,15.32
2022-08-25T16:41:40.312Z,21.63
2022-08-25T16:45:02.310Z,17.42
2022-08-25T16:48:26.338Z,9.90
2022-08-25T16:51:49.293Z,19.65
2022-08-25T16:55:21.294Z,21.83
2022-08-25T16:58:43.299Z,22.52
2022-08-25T17:02:07.374Z,19.55
2022-08-25T17:05:28.284Z,17.90
2022-08-25T17:08:50.306Z,27.63
2022-08-25T17:12:11.296Z,17.17
2022-08-25T17:15:32.332Z,17.15
2022-08-25T17:18:53.292Z,24.50
2022-08-25T17:22:15.316Z,26.67
2022-08-25T17:25:36.304Z,34.63
2022-08-25T17:28:55.315Z,22.10
2022-08-25T17:32:17.298Z,32.00
2022-08-25T17:35:38.307Z,21.13
2022-08-25T17:38:59.294Z,24.08
2022-08-25T17:42:20.349Z,39.58
2022-08-25T17:46:01.342Z,25.85
2022-08-25T17:49:24.324Z,19.23
2022-08-25T17:52:46.461Z,21.23
2022-08-25T17:56:17.330Z,16.38
2022-08-25T17:59:39.327Z,20.75
2022-08-25T18:03:01.338Z,26.55
2022-08-25T18:06:22.375Z,18.48
2022-08-25T18:09:43.323Z,21.30
2022-08-25T18:13:04.339Z,37.67
2022-08-25T18:16:26.334Z,26.75
2022-08-25T18:19:47.334Z,18.88
2022-08-25T18:23:09.823Z,17.95
2022-08-25T18:26:31.352Z,16.40
2022-08-25T18:29:52.329Z,23.27
2022-08-25T18:33:13.345Z,19.27
2022-08-25T18:36:38.674Z,21.25
2022-08-25T18:40:18.416Z,23.70
2022-08-25T18:43:39.325Z,30.05
2022-08-25T18:47:00.350Z,22.42
2022-08-25T18:50:28.334Z,33.95
2022-08-25T18:53:50.244Z,24.30
2022-08-25T18:57:11.326Z,20.55
2022-08-25T19:00:35.334Z,18.83
2022-08-25T19:03:56.364Z,17.15
2022-08-25T19:07:19.356Z,23.67
2022-08-25T19:10:42.343Z,21.20
2022-08-25T19:14:04.347Z,28.92
2022-08-25T19:17:37.426Z,25.27
2022-08-25T19:20:51.386Z,25.20
2022-08-25T19:24:13.390Z,30.90
2022-08-25T19:27:34.351Z,31.00
2022-08-25T19:30:55.402Z,25.08
2022-08-25T19:34:16.347Z,23.73
2022-08-25T19:37:39.354Z,28.10
2022-08-25T19:41:01.356Z,22.17
2022-08-25T19:44:23.365Z,20.55
2022-08-25T19:47:48.342Z,15.93
2022-08-25T19:51:09.372Z,28.17
2022-08-25T19:54:44.396Z,18.45
2022-08-25T19:58:05.350Z,24.52
2022-08-25T20:01:26.469Z,19.20
2022-08-25T20:04:49.394Z,28.88
2022-08-25T20:08:12.363Z,22.45
2022-08-25T20:11:33.362Z,25.88
2022-08-25T20:14:54.363Z,29.48
2022-08-25T20:18:15.376Z,30.30
2022-08-25T20:21:37.605Z,20.80
2022-08-25T20:24:58.689Z,22.70
2022-08-25T20:28:19.389Z,25.83
2022-08-25T20:31:40.377Z,25.13
2022-08-25T20:35:02.405Z,29.88
2022-08-25T20:38:24.373Z,26.00
2022-08-25T20:41:48.242Z,33.80
2022-08-25T20:45:09.376Z,26.92
2022-08-25T20:48:30.404Z,29.00
2022-08-25T20:51:51.377Z,33.28
2022-08-25T20:55:12.441Z,43.22
2022-08-25T20:58:33.372Z,35.92
2022-08-25T21:01:55.469Z,37.60
2022-08-25T21:05:16.366Z,29.73
2022-08-25T21:08:37.396Z,40.92
2022-08-25T21:12:08.429Z,37.90
2022-08-25T21:15:29.392Z,38.20
2022-08-25T21:18:50.404Z,41.53
2022-08-25T21:22:12.404Z,39.05
2022-08-25T21:25:33.387Z,47.10
2022-08-25T21:28:54.395Z,41.58
2022-08-25T21:32:09.392Z,49.67
2022-08-25T21:35:30.404Z,65.38
2022-08-25T21:38:51.388Z,47.65
2022-08-25T21:42:13.451Z,40.47
2022-08-25T21:45:35.933Z,41.85
2022-08-25T21:48:57.411Z,49.22
2022-08-25T21:52:21.393Z,36.70
2022-08-25T21:55:42.395Z,37.80
2022-08-25T21:59:03.386Z,40.03
2022-08-25T22:02:33.451Z,41.88
2022-08-25T22:05:55.392Z,37.00
2022-08-25T22:09:21.386Z,37.13
2022-08-25T22:12:42.380Z,40.85
2022-08-25T22:16:03.444Z,32.40
2022-08-25T22:19:28.429Z,46.85
2022-08-25T22:22:49.424Z,40.78
2022-08-25T22:26:10.437Z,45.15
2022-08-25T22:29:32.412Z,46.70
2022-08-25T22:32:46.413Z,40.38
2022-08-25T22:36:07.406Z,29.10
2022-08-25T22:39:31.422Z,31.40
2022-08-25T22:42:52.443Z,28.67
2022-08-25T22:46:15.448Z,30.48
2022-08-25T22:49:42.415Z,27.58
2022-08-25T22:53:04.502Z,29.13
2022-08-25T22:56:27.414Z,31.50
2022-08-25T22:59:48.426Z,27.58
2022-08-25T23:03:11.493Z,32.03
2022-08-25T23:06:35.426Z,36.08
2022-08-25T23:09:56.417Z,30.27
2022-08-25T23:13:33.863Z,31.40
2022-08-25T23:16:56.463Z,37.88
2022-08-25T23:20:37.442Z,34.33
2022-08-25T23:24:07.428Z,31.55
2022-08-25T23:27:24.435Z,33.80
2022-08-25T23:30:54.549Z,35.70
2022-08-25T23:34:20.442Z,39.38
2022-08-25T23:37:34.465Z,35.38
2022-08-25T23:40:56.476Z,30.83
2022-08-25T23:44:18.588Z,30.60
2022-08-25T23:47:39.447Z,45.53
2022-08-25T23:51:01.452Z,30.67
2022-08-25T23:54:31.167Z,37.03
2022-08-25T23:57:52.456Z,34.05
